sensor_id;sensor_type;location;lat;lon;timestamp;temperature;humidity
37788;DHT22;23627;53.302;-6.362;2024-02-23T00:00:57;5.30;99.90
37788;DHT22;23627;53.302;-6.362;2024-02-23T00:03:22;5.30;99.90
37788;DHT22;23627;53.302;-6.362;2024-02-23T00:05:48;5.30;99.90
37788;DHT22;23627;53.302;-6.362;2024-02-23T00:08:14;5.30;99.90
37788;DHT22;23627;53.302;-6.362;2024-02-23T00:10:40;5.30;99.90
37788;DHT22;23627;53.302;-6.362;2024-02-23T00:13:05;5.30;99.90
37788;DHT22;23627;53.302;-6.362;2024-02-23T00:15:31;5.30;99.90
37788;DHT22;23627;53.302;-6.362;2024-02-23T00:17:57;5.30;99.90
37788;DHT22;23627;53.302;-6.362;2024-02-23T00:20:23;5.30;99.90
37788;DHT22;23627;53.302;-6.362;2024-02-23T00:22:49;5.30;99.90
37788;DHT22;23627;53.302;-6.362;2024-02-23T00:25:14;5.20;99.90
37788;DHT22;23627;53.302;-6.362;2024-02-23T00:27:40;5.30;99.90
37788;DHT22;23627;53.302;-6.362;2024-02-23T00:30:07;5.30;99.90
37788;DHT22;23627;53.302;-6.362;2024-02-23T00:32:36;5.30;99.90
37788;DHT22;23627;53.302;-6.362;2024-02-23T00:35:02;5.20;99.90
37788;DHT22;23627;53.302;-6.362;2024-02-23T00:37:28;5.20;99.90
37788;DHT22;23627;53.302;-6.362;2024-02-23T00:39:54;5.20;99.90
37788;DHT22;23627;53.302;-6.362;2024-02-23T00:42:19;5.20;99.90
37788;DHT22;23627;53.302;-6.362;2024-02-23T00:44:46;5.20;99.90
37788;DHT22;23627;53.302;-6.362;2024-02-23T00:47:12;5.20;99.90
37788;DHT22;23627;53.302;-6.362;2024-02-23T00:49:38;5.20;99.90
37788;DHT22;23627;53.302;-6.362;2024-02-23T00:52:04;5.20;99.90
37788;DHT22;23627;53.302;-6.362;2024-02-23T00:54:30;5.20;99.90
37788;DHT22;23627;53.302;-6.362;2024-02-23T00:56:56;5.20;99.90
37788;DHT22;23627;53.302;-6.362;2024-02-23T00:59:21;5.30;99.90
37788;DHT22;23627;53.302;-6.362;2024-02-23T01:01:49;5.30;99.90
37788;DHT22;23627;53.302;-6.362;2024-02-23T01:04:15;5.30;99.90
37788;DHT22;23627;53.302;-6.362;2024-02-23T01:06:41;5.30;99.90
37788;DHT22;23627;53.302;-6.362;2024-02-23T01:09:07;5.30;99.90
37788;DHT22;23627;53.302;-6.362;2024-02-23T01:11:33;5.30;99.90
37788;DHT22;23627;53.302;-6.362;2024-02-23T01:13:58;5.20;99.90
37788;DHT22;23627;53.302;-6.362;2024-02-23T01:16:24;5.20;99.90
37788;DHT22;23627;53.302;-6.362;2024-02-23T01:18:50;5.20;99.90
37788;DHT22;23627;53.302;-6.362;2024-02-23T01:21:16;5.20;99.90
37788;DHT22;23627;53.302;-6.362;2024-02-23T01:23:42;5.20;99.90
37788;DHT22;23627;53.302;-6.362;2024-02-23T01:26:07;5.20;99.90
37788;DHT22;23627;53.302;-6.362;2024-02-23T01:28:33;5.20;99.90
37788;DHT22;23627;53.302;-6.362;2024-02-23T01:30:59;5.20;99.90
37788;DHT22;23627;53.302;-6.362;2024-02-23T01:33:24;5.20;99.90
37788;DHT22;23627;53.302;-6.362;2024-02-23T01:35:50;5.20;99.90
37788;DHT22;23627;53.302;-6.362;2024-02-23T01:38:16;5.20;99.90
37788;DHT22;23627;53.302;-6.362;2024-02-23T01:40:46;5.20;99.90
37788;DHT22;23627;53.302;-6.362;2024-02-23T01:43:13;5.20;99.90
37788;DHT22;23627;53.302;-6.362;2024-02-23T01:45:39;5.20;99.90
37788;DHT22;23627;53.302;-6.362;2024-02-23T01:48:06;5.10;99.90
37788;DHT22;23627;53.302;-6.362;2024-02-23T01:50:32;5.10;99.90
37788;DHT22;23627;53.302;-6.362;2024-02-23T01:53:00;5.10;99.90
37788;DHT22;23627;53.302;-6.362;2024-02-23T01:55:27;5.10;99.90
37788;DHT22;23627;53.302;-6.362;2024-02-23T01:57:54;5.10;99.90
37788;DHT22;23627;53.302;-6.362;2024-02-23T02:00:20;5.10;99.90
37788;DHT22;23627;53.302;-6.362;2024-02-23T02:02:48;5.10;99.90
37788;DHT22;23627;53.302;-6.362;2024-02-23T02:05:14;5.10;99.90
37788;DHT22;23627;53.302;-6.362;2024-02-23T02:07:40;5.10;99.90
37788;DHT22;23627;53.302;-6.362;2024-02-23T02:10:10;5.10;99.90
37788;DHT22;23627;53.302;-6.362;2024-02-23T02:12:36;5.00;99.90
37788;DHT22;23627;53.302;-6.362;2024-02-23T02:15:02;5.00;99.90
37788;DHT22;23627;53.302;-6.362;2024-02-23T02:17:28;5.00;99.90
37788;DHT22;23627;53.302;-6.362;2024-02-23T02:19:54;5.00;99.90
37788;DHT22;23627;53.302;-6.362;2024-02-23T02:22:20;5.00;99.90
37788;DHT22;23627;53.302;-6.362;2024-02-23T02:24:46;5.00;99.90
37788;DHT22;23627;53.302;-6.362;2024-02-23T02:27:14;5.00;99.90
37788;DHT22;23627;53.302;-6.362;2024-02-23T02:29:40;4.90;99.90
37788;DHT22;23627;53.302;-6.362;2024-02-23T02:32:06;5.00;99.90
37788;DHT22;23627;53.302;-6.362;2024-02-23T02:34:32;5.00;99.90
37788;DHT22;23627;53.302;-6.362;2024-02-23T02:36:57;5.00;99.90
37788;DHT22;23627;53.302;-6.362;2024-02-23T02:39:23;4.90;99.90
37788;DHT22;23627;53.302;-6.362;2024-02-23T02:41:49;4.90;99.90
37788;DHT22;23627;53.302;-6.362;2024-02-23T02:44:15;4.90;99.90
37788;DHT22;23627;53.302;-6.362;2024-02-23T02:46:42;4.90;99.90
37788;DHT22;23627;53.302;-6.362;2024-02-23T02:49:07;4.90;99.90
37788;DHT22;23627;53.302;-6.362;2024-02-23T02:51:33;4.90;99.90
37788;DHT22;23627;53.302;-6.362;2024-02-23T02:53:59;4.90;99.90
37788;DHT22;23627;53.302;-6.362;2024-02-23T02:56:25;4.90;99.90
37788;DHT22;23627;53.302;-6.362;2024-02-23T02:58:50;4.90;99.90
37788;DHT22;23627;53.302;-6.362;2024-02-23T03:01:16;4.90;99.90
37788;DHT22;23627;53.302;-6.362;2024-02-23T03:03:42;4.90;99.90
37788;DHT22;23627;53.302;-6.362;2024-02-23T03:06:08;4.80;99.90
37788;DHT22;23627;53.302;-6.362;2024-02-23T03:08:34;4.80;99.90
37788;DHT22;23627;53.302;-6.362;2024-02-23T03:11:00;4.80;99.90
37788;DHT22;23627;53.302;-6.362;2024-02-23T03:13:26;4.80;99.90
37788;DHT22;23627;53.302;-6.362;2024-02-23T03:15:52;4.80;99.90
37788;DHT22;23627;53.302;-6.362;2024-02-23T03:18:17;4.80;99.90
37788;DHT22;23627;53.302;-6.362;2024-02-23T03:20:43;4.80;99.90
37788;DHT22;23627;53.302;-6.362;2024-02-23T03:23:10;4.80;99.90
37788;DHT22;23627;53.302;-6.362;2024-02-23T03:25:35;4.80;99.90
37788;DHT22;23627;53.302;-6.362;2024-02-23T03:28:01;4.80;99.90
37788;DHT22;23627;53.302;-6.362;2024-02-23T03:30:27;4.70;99.90
37788;DHT22;23627;53.302;-6.362;2024-02-23T03:32:53;4.70;99.90
37788;DHT22;23627;53.302;-6.362;2024-02-23T03:35:18;4.70;99.90
37788;DHT22;23627;53.302;-6.362;2024-02-23T03:37:44;4.70;99.90
37788;DHT22;23627;53.302;-6.362;2024-02-23T03:40:10;4.70;99.90
37788;DHT22;23627;53.302;-6.362;2024-02-23T03:42:36;4.70;99.90
37788;DHT22;23627;53.302;-6.362;2024-02-23T03:45:02;4.70;99.90
37788;DHT22;23627;53.302;-6.362;2024-02-23T03:47:28;4.70;99.90
37788;DHT22;23627;53.302;-6.362;2024-02-23T03:49:54;4.70;99.90
37788;DHT22;23627;53.302;-6.362;2024-02-23T03:52:20;4.70;99.90
37788;DHT22;23627;53.302;-6.362;2024-02-23T03:54:46;4.70;99.90
37788;DHT22;23627;53.302;-6.362;2024-02-23T03:57:11;4.70;99.90
37788;DHT22;23627;53.302;-6.362;2024-02-23T03:59:37;4.70;99.90
37788;DHT22;23627;53.302;-6.362;2024-02-23T04:02:04;4.70;99.90
37788;DHT22;23627;53.302;-6.362;2024-02-23T04:04:29;4.70;99.90
37788;DHT22;23627;53.302;-6.362;2024-02-23T04:06:55;4.70;99.90
37788;DHT22;23627;53.302;-6.362;2024-02-23T04:09:21;4.70;99.90
37788;DHT22;23627;53.302;-6.362;2024-02-23T04:11:48;4.70;99.90
37788;DHT22;23627;53.302;-6.362;2024-02-23T04:14:14;4.60;99.90
37788;DHT22;23627;53.302;-6.362;2024-02-23T04:16:40;4.60;99.90
37788;DHT22;23627;53.302;-6.362;2024-02-23T04:19:05;4.60;99.90
37788;DHT22;23627;53.302;-6.362;2024-02-23T04:21:31;4.60;99.90
37788;DHT22;23627;53.302;-6.362;2024-02-23T04:23:57;4.60;99.90
37788;DHT22;23627;53.302;-6.362;2024-02-23T04:26:23;4.60;99.90
37788;DHT22;23627;53.302;-6.362;2024-02-23T04:28:49;4.60;99.90
37788;DHT22;23627;53.302;-6.362;2024-02-23T04:31:14;4.60;99.90
37788;DHT22;23627;53.302;-6.362;2024-02-23T04:33:40;4.60;99.90
37788;DHT22;23627;53.302;-6.362;2024-02-23T04:36:06;4.50;99.90
37788;DHT22;23627;53.302;-6.362;2024-02-23T04:38:32;4.50;99.90
37788;DHT22;23627;53.302;-6.362;2024-02-23T04:41:02;4.50;99.90
37788;DHT22;23627;53.302;-6.362;2024-02-23T04:43:28;4.50;99.90
37788;DHT22;23627;53.302;-6.362;2024-02-23T04:45:54;4.50;99.90
37788;DHT22;23627;53.302;-6.362;2024-02-23T04:48:20;4.50;99.90
37788;DHT22;23627;53.302;-6.362;2024-02-23T04:50:46;4.50;99.90
37788;DHT22;23627;53.302;-6.362;2024-02-23T04:53:11;4.50;99.90
37788;DHT22;23627;53.302;-6.362;2024-02-23T04:55:37;4.50;99.90
37788;DHT22;23627;53.302;-6.362;2024-02-23T04:58:03;4.50;99.90
37788;DHT22;23627;53.302;-6.362;2024-02-23T05:00:29;4.50;99.90
37788;DHT22;23627;53.302;-6.362;2024-02-23T05:03:02;4.50;99.90
37788;DHT22;23627;53.302;-6.362;2024-02-23T05:05:32;4.50;99.90
37788;DHT22;23627;53.302;-6.362;2024-02-23T05:07:58;4.50;99.90
37788;DHT22;23627;53.302;-6.362;2024-02-23T05:10:23;4.50;99.90
37788;DHT22;23627;53.302;-6.362;2024-02-23T05:12:49;4.50;99.90
37788;DHT22;23627;53.302;-6.362;2024-02-23T05:15:15;4.40;99.90
37788;DHT22;23627;53.302;-6.362;2024-02-23T05:17:42;4.40;99.90
37788;DHT22;23627;53.302;-6.362;2024-02-23T05:20:08;4.40;99.90
37788;DHT22;23627;53.302;-6.362;2024-02-23T05:22:39;4.40;99.90
37788;DHT22;23627;53.302;-6.362;2024-02-23T05:25:06;4.40;99.90
37788;DHT22;23627;53.302;-6.362;2024-02-23T05:27:32;4.40;99.90
37788;DHT22;23627;53.302;-6.362;2024-02-23T05:29:58;4.40;99.90
37788;DHT22;23627;53.302;-6.362;2024-02-23T05:32:24;4.40;99.90
37788;DHT22;23627;53.302;-6.362;2024-02-23T05:34:50;4.40;99.90
37788;DHT22;23627;53.302;-6.362;2024-02-23T05:37:18;4.40;99.90
37788;DHT22;23627;53.302;-6.362;2024-02-23T05:39:44;4.40;99.90
37788;DHT22;23627;53.302;-6.362;2024-02-23T05:42:14;4.30;99.90
37788;DHT22;23627;53.302;-6.362;2024-02-23T05:44:43;4.40;99.90
37788;DHT22;23627;53.302;-6.362;2024-02-23T05:47:09;4.30;99.90
37788;DHT22;23627;53.302;-6.362;2024-02-23T05:49:35;4.30;99.90
37788;DHT22;23627;53.302;-6.362;2024-02-23T05:52:01;4.30;99.90
37788;DHT22;23627;53.302;-6.362;2024-02-23T05:54:27;4.30;99.90
37788;DHT22;23627;53.302;-6.362;2024-02-23T05:56:52;4.30;99.90
37788;DHT22;23627;53.302;-6.362;2024-02-23T05:59:18;4.30;99.90
37788;DHT22;23627;53.302;-6.362;2024-02-23T06:01:44;4.30;99.90
37788;DHT22;23627;53.302;-6.362;2024-02-23T06:04:09;4.30;99.90
37788;DHT22;23627;53.302;-6.362;2024-02-23T06:06:35;4.20;99.90
37788;DHT22;23627;53.302;-6.362;2024-02-23T06:09:01;4.20;99.90
37788;DHT22;23627;53.302;-6.362;2024-02-23T06:11:28;4.20;99.90
37788;DHT22;23627;53.302;-6.362;2024-02-23T06:13:53;4.20;99.90
37788;DHT22;23627;53.302;-6.362;2024-02-23T06:16:19;4.20;99.90
37788;DHT22;23627;53.302;-6.362;2024-02-23T06:18:45;4.20;99.90
37788;DHT22;23627;53.302;-6.362;2024-02-23T06:21:14;4.30;99.90
37788;DHT22;23627;53.302;-6.362;2024-02-23T06:23:41;4.30;99.90
37788;DHT22;23627;53.302;-6.362;2024-02-23T06:26:10;4.30;99.90
37788;DHT22;23627;53.302;-6.362;2024-02-23T06:28:36;4.30;99.90
37788;DHT22;23627;53.302;-6.362;2024-02-23T06:31:07;4.30;99.90
37788;DHT22;23627;53.302;-6.362;2024-02-23T06:33:36;4.30;99.90
37788;DHT22;23627;53.302;-6.362;2024-02-23T06:36:02;4.30;99.90
37788;DHT22;23627;53.302;-6.362;2024-02-23T06:38:28;4.30;99.90
37788;DHT22;23627;53.302;-6.362;2024-02-23T06:40:54;4.30;99.90
37788;DHT22;23627;53.302;-6.362;2024-02-23T06:43:24;4.30;99.90
37788;DHT22;23627;53.302;-6.362;2024-02-23T06:45:50;4.30;99.90
37788;DHT22;23627;53.302;-6.362;2024-02-23T06:48:16;4.30;99.90
37788;DHT22;23627;53.302;-6.362;2024-02-23T06:50:41;4.30;99.90
37788;DHT22;23627;53.302;-6.362;2024-02-23T06:53:07;4.30;99.90
37788;DHT22;23627;53.302;-6.362;2024-02-23T06:55:34;4.30;99.90
37788;DHT22;23627;53.302;-6.362;2024-02-23T06:58:00;4.40;99.90
37788;DHT22;23627;53.302;-6.362;2024-02-23T07:00:25;4.30;99.90
37788;DHT22;23627;53.302;-6.362;2024-02-23T07:02:51;4.30;99.90
37788;DHT22;23627;53.302;-6.362;2024-02-23T07:05:17;4.30;99.90
37788;DHT22;23627;53.302;-6.362;2024-02-23T07:07:43;4.30;99.90
37788;DHT22;23627;53.302;-6.362;2024-02-23T07:10:09;4.40;99.90
37788;DHT22;23627;53.302;-6.362;2024-02-23T07:12:36;4.40;99.90
37788;DHT22;23627;53.302;-6.362;2024-02-23T07:15:02;4.40;99.90
37788;DHT22;23627;53.302;-6.362;2024-02-23T07:17:28;4.40;99.90
37788;DHT22;23627;53.302;-6.362;2024-02-23T07:19:54;4.40;99.90
37788;DHT22;23627;53.302;-6.362;2024-02-23T07:22:21;4.40;99.90
37788;DHT22;23627;53.302;-6.362;2024-02-23T07:24:47;4.40;99.90
37788;DHT22;23627;53.302;-6.362;2024-02-23T07:27:13;4.40;99.90
37788;DHT22;23627;53.302;-6.362;2024-02-23T07:29:38;4.40;99.90
37788;DHT22;23627;53.302;-6.362;2024-02-23T07:32:04;4.40;99.90
37788;DHT22;23627;53.302;-6.362;2024-02-23T07:34:31;4.40;99.90
37788;DHT22;23627;53.302;-6.362;2024-02-23T07:36:57;4.50;99.90
37788;DHT22;23627;53.302;-6.362;2024-02-23T07:39:22;4.50;99.90
37788;DHT22;23627;53.302;-6.362;2024-02-23T07:41:48;4.50;99.90
37788;DHT22;23627;53.302;-6.362;2024-02-23T07:44:14;4.50;99.90
37788;DHT22;23627;53.302;-6.362;2024-02-23T07:46:40;4.50;99.90
37788;DHT22;23627;53.302;-6.362;2024-02-23T07:49:09;4.40;99.90
37788;DHT22;23627;53.302;-6.362;2024-02-23T07:51:35;4.50;99.90
37788;DHT22;23627;53.302;-6.362;2024-02-23T07:54:01;4.50;99.90
37788;DHT22;23627;53.302;-6.362;2024-02-23T07:56:27;4.50;99.90
37788;DHT22;23627;53.302;-6.362;2024-02-23T07:59:02;4.50;99.90
37788;DHT22;23627;53.302;-6.362;2024-02-23T08:01:36;4.50;99.90
37788;DHT22;23627;53.302;-6.362;2024-02-23T08:04:02;4.50;99.90
37788;DHT22;23627;53.302;-6.362;2024-02-23T08:06:28;4.60;99.90
37788;DHT22;23627;53.302;-6.362;2024-02-23T08:08:57;4.50;99.90
37788;DHT22;23627;53.302;-6.362;2024-02-23T08:11:22;4.50;99.90
37788;DHT22;23627;53.302;-6.362;2024-02-23T08:13:48;4.50;99.90
37788;DHT22;23627;53.302;-6.362;2024-02-23T08:16:16;4.60;99.90
37788;DHT22;23627;53.302;-6.362;2024-02-23T08:18:45;4.60;99.90
37788;DHT22;23627;53.302;-6.362;2024-02-23T08:21:11;4.60;99.90
37788;DHT22;23627;53.302;-6.362;2024-02-23T08:23:37;4.60;99.90
37788;DHT22;23627;53.302;-6.362;2024-02-23T08:26:03;4.60;99.90
37788;DHT22;23627;53.302;-6.362;2024-02-23T08:28:31;4.60;99.90
37788;DHT22;23627;53.302;-6.362;2024-02-23T08:30:57;4.60;99.90
37788;DHT22;23627;53.302;-6.362;2024-02-23T08:33:23;4.60;99.90
37788;DHT22;23627;53.302;-6.362;2024-02-23T08:35:49;4.60;99.90
37788;DHT22;23627;53.302;-6.362;2024-02-23T08:38:14;4.70;99.90
37788;DHT22;23627;53.302;-6.362;2024-02-23T08:40:40;4.60;99.90
37788;DHT22;23627;53.302;-6.362;2024-02-23T08:43:07;4.70;99.90
37788;DHT22;23627;53.302;-6.362;2024-02-23T08:45:35;4.70;99.90
37788;DHT22;23627;53.302;-6.362;2024-02-23T08:48:01;4.70;99.90
37788;DHT22;23627;53.302;-6.362;2024-02-23T08:50:29;4.70;99.90
37788;DHT22;23627;53.302;-6.362;2024-02-23T08:52:55;4.80;99.90
37788;DHT22;23627;53.302;-6.362;2024-02-23T08:55:21;4.80;99.90
37788;DHT22;23627;53.302;-6.362;2024-02-23T08:57:47;4.90;99.90
37788;DHT22;23627;53.302;-6.362;2024-02-23T09:00:13;4.80;99.90
37788;DHT22;23627;53.302;-6.362;2024-02-23T09:02:41;4.90;99.90
37788;DHT22;23627;53.302;-6.362;2024-02-23T09:05:11;4.90;99.90
37788;DHT22;23627;53.302;-6.362;2024-02-23T09:07:36;4.90;99.90
37788;DHT22;23627;53.302;-6.362;2024-02-23T09:10:03;4.90;99.90
37788;DHT22;23627;53.302;-6.362;2024-02-23T09:12:31;4.90;99.90
37788;DHT22;23627;53.302;-6.362;2024-02-23T09:15:00;5.00;99.90
37788;DHT22;23627;53.302;-6.362;2024-02-23T09:17:26;5.00;99.90
37788;DHT22;23627;53.302;-6.362;2024-02-23T09:19:52;5.00;99.90
37788;DHT22;23627;53.302;-6.362;2024-02-23T09:22:17;5.00;99.90
37788;DHT22;23627;53.302;-6.362;2024-02-23T09:24:43;5.00;99.90
37788;DHT22;23627;53.302;-6.362;2024-02-23T09:27:09;5.00;99.90
37788;DHT22;23627;53.302;-6.362;2024-02-23T09:29:35;5.00;99.90
37788;DHT22;23627;53.302;-6.362;2024-02-23T09:32:01;5.10;99.90
37788;DHT22;23627;53.302;-6.362;2024-02-23T09:34:27;5.00;99.90
37788;DHT22;23627;53.302;-6.362;2024-02-23T09:36:53;5.00;99.90
37788;DHT22;23627;53.302;-6.362;2024-02-23T09:39:18;5.00;99.90
37788;DHT22;23627;53.302;-6.362;2024-02-23T09:41:45;5.10;99.90
37788;DHT22;23627;53.302;-6.362;2024-02-23T09:44:15;5.10;99.90
37788;DHT22;23627;53.302;-6.362;2024-02-23T09:46:43;5.10;99.90
37788;DHT22;23627;53.302;-6.362;2024-02-23T09:49:11;5.10;99.90
37788;DHT22;23627;53.302;-6.362;2024-02-23T09:51:38;5.10;99.90
37788;DHT22;23627;53.302;-6.362;2024-02-23T09:54:04;5.20;99.90
37788;DHT22;23627;53.302;-6.362;2024-02-23T09:56:30;5.20;99.90
37788;DHT22;23627;53.302;-6.362;2024-02-23T09:59:02;5.20;99.90
37788;DHT22;23627;53.302;-6.362;2024-02-23T10:01:29;5.20;99.90
37788;DHT22;23627;53.302;-6.362;2024-02-23T10:03:57;5.20;99.90
37788;DHT22;23627;53.302;-6.362;2024-02-23T10:06:25;5.30;99.90
37788;DHT22;23627;53.302;-6.362;2024-02-23T10:08:51;5.30;99.90
37788;DHT22;23627;53.302;-6.362;2024-02-23T10:11:21;5.30;99.90
37788;DHT22;23627;53.302;-6.362;2024-02-23T10:13:50;5.30;99.90
37788;DHT22;23627;53.302;-6.362;2024-02-23T10:16:20;5.30;99.90
37788;DHT22;23627;53.302;-6.362;2024-02-23T10:18:47;5.30;99.90
37788;DHT22;23627;53.302;-6.362;2024-02-23T10:21:16;5.30;99.90
37788;DHT22;23627;53.302;-6.362;2024-02-23T10:23:44;5.30;99.90
37788;DHT22;23627;53.302;-6.362;2024-02-23T10:26:12;5.30;99.90
37788;DHT22;23627;53.302;-6.362;2024-02-23T10:28:38;5.30;99.90
37788;DHT22;23627;53.302;-6.362;2024-02-23T10:31:05;5.40;99.90
37788;DHT22;23627;53.302;-6.362;2024-02-23T10:33:31;5.40;99.90
37788;DHT22;23627;53.302;-6.362;2024-02-23T10:35:57;5.40;99.90
37788;DHT22;23627;53.302;-6.362;2024-02-23T10:38:32;5.40;99.90
37788;DHT22;23627;53.302;-6.362;2024-02-23T10:40:58;5.40;99.90
37788;DHT22;23627;53.302;-6.362;2024-02-23T10:43:33;5.40;99.90
37788;DHT22;23627;53.302;-6.362;2024-02-23T10:46:01;5.40;99.90
37788;DHT22;23627;53.302;-6.362;2024-02-23T10:48:28;5.50;99.90
37788;DHT22;23627;53.302;-6.362;2024-02-23T10:50:56;5.50;99.90
37788;DHT22;23627;53.302;-6.362;2024-02-23T10:53:24;5.50;99.90
37788;DHT22;23627;53.302;-6.362;2024-02-23T10:55:55;5.50;99.90
37788;DHT22;23627;53.302;-6.362;2024-02-23T10:58:23;5.50;99.90
37788;DHT22;23627;53.302;-6.362;2024-02-23T11:00:49;5.60;99.90
37788;DHT22;23627;53.302;-6.362;2024-02-23T11:03:15;5.60;99.90
37788;DHT22;23627;53.302;-6.362;2024-02-23T11:05:41;5.60;99.90
37788;DHT22;23627;53.302;-6.362;2024-02-23T11:08:07;5.60;99.90
37788;DHT22;23627;53.302;-6.362;2024-02-23T11:11:08;5.70;99.90
37788;DHT22;23627;53.302;-6.362;2024-02-23T11:13:35;5.80;99.90
37788;DHT22;23627;53.302;-6.362;2024-02-23T11:16:05;5.80;99.90
37788;DHT22;23627;53.302;-6.362;2024-02-23T11:18:33;5.90;99.90
37788;DHT22;23627;53.302;-6.362;2024-02-23T11:21:01;6.00;99.90
37788;DHT22;23627;53.302;-6.362;2024-02-23T11:23:41;6.00;99.90
37788;DHT22;23627;53.302;-6.362;2024-02-23T11:26:11;6.10;99.90
37788;DHT22;23627;53.302;-6.362;2024-02-23T11:28:47;6.20;99.90
37788;DHT22;23627;53.302;-6.362;2024-02-23T11:31:15;6.30;99.90
37788;DHT22;23627;53.302;-6.362;2024-02-23T11:33:48;6.30;99.90
37788;DHT22;23627;53.302;-6.362;2024-02-23T11:36:22;6.40;99.90
37788;DHT22;23627;53.302;-6.362;2024-02-23T11:38:48;6.40;99.90
37788;DHT22;23627;53.302;-6.362;2024-02-23T11:41:15;6.40;99.90
37788;DHT22;23627;53.302;-6.362;2024-02-23T11:43:41;6.50;99.90
37788;DHT22;23627;53.302;-6.362;2024-02-23T11:46:07;6.60;99.90
37788;DHT22;23627;53.302;-6.362;2024-02-23T11:48:33;6.70;99.90
37788;DHT22;23627;53.302;-6.362;2024-02-23T11:50:59;6.70;99.90
37788;DHT22;23627;53.302;-6.362;2024-02-23T11:53:29;6.80;99.90
37788;DHT22;23627;53.302;-6.362;2024-02-23T11:55:55;6.70;99.90
37788;DHT22;23627;53.302;-6.362;2024-02-23T11:58:21;6.70;99.90
37788;DHT22;23627;53.302;-6.362;2024-02-23T12:00:47;6.80;99.90
37788;DHT22;23627;53.302;-6.362;2024-02-23T12:03:13;6.80;99.90
37788;DHT22;23627;53.302;-6.362;2024-02-23T12:05:38;6.80;99.90
37788;DHT22;23627;53.302;-6.362;2024-02-23T12:08:04;6.80;99.90
37788;DHT22;23627;53.302;-6.362;2024-02-23T12:10:31;6.90;99.90
37788;DHT22;23627;53.302;-6.362;2024-02-23T12:12:58;7.00;99.90
37788;DHT22;23627;53.302;-6.362;2024-02-23T12:15:24;7.00;99.90
37788;DHT22;23627;53.302;-6.362;2024-02-23T12:17:50;7.10;99.90
37788;DHT22;23627;53.302;-6.362;2024-02-23T12:20:16;7.20;99.90
37788;DHT22;23627;53.302;-6.362;2024-02-23T12:22:42;7.30;99.90
37788;DHT22;23627;53.302;-6.362;2024-02-23T12:25:08;7.50;99.90
37788;DHT22;23627;53.302;-6.362;2024-02-23T12:27:34;7.60;99.90
37788;DHT22;23627;53.302;-6.362;2024-02-23T12:30:00;7.70;99.90
37788;DHT22;23627;53.302;-6.362;2024-02-23T12:32:26;7.80;99.90
37788;DHT22;23627;53.302;-6.362;2024-02-23T12:35:01;7.80;99.90
37788;DHT22;23627;53.302;-6.362;2024-02-23T12:37:34;7.90;99.90
37788;DHT22;23627;53.302;-6.362;2024-02-23T12:40:00;7.80;99.90
37788;DHT22;23627;53.302;-6.362;2024-02-23T12:42:26;7.80;99.90
37788;DHT22;23627;53.302;-6.362;2024-02-23T12:44:51;7.90;99.90
37788;DHT22;23627;53.302;-6.362;2024-02-23T12:47:17;7.90;99.90
37788;DHT22;23627;53.302;-6.362;2024-02-23T12:49:43;8.10;99.90
37788;DHT22;23627;53.302;-6.362;2024-02-23T12:52:09;8.20;99.90
37788;DHT22;23627;53.302;-6.362;2024-02-23T12:54:35;8.30;99.90
37788;DHT22;23627;53.302;-6.362;2024-02-23T12:57:01;8.40;99.90
37788;DHT22;23627;53.302;-6.362;2024-02-23T12:59:27;8.50;99.90
37788;DHT22;23627;53.302;-6.362;2024-02-23T13:01:53;8.40;99.90
37788;DHT22;23627;53.302;-6.362;2024-02-23T13:04:21;8.50;99.90
37788;DHT22;23627;53.302;-6.362;2024-02-23T13:06:49;8.50;99.90
37788;DHT22;23627;53.302;-6.362;2024-02-23T13:09:18;8.50;99.90
37788;DHT22;23627;53.302;-6.362;2024-02-23T13:11:44;8.60;99.90
37788;DHT22;23627;53.302;-6.362;2024-02-23T13:14:11;8.60;99.90
37788;DHT22;23627;53.302;-6.362;2024-02-23T13:16:37;8.60;99.90
37788;DHT22;23627;53.302;-6.362;2024-02-23T13:19:02;8.70;99.90
37788;DHT22;23627;53.302;-6.362;2024-02-23T13:21:28;8.70;99.90
37788;DHT22;23627;53.302;-6.362;2024-02-23T13:23:54;8.80;99.90
37788;DHT22;23627;53.302;-6.362;2024-02-23T13:26:20;8.80;99.90
37788;DHT22;23627;53.302;-6.362;2024-02-23T13:28:46;8.80;99.90
37788;DHT22;23627;53.302;-6.362;2024-02-23T13:31:12;8.80;99.90
37788;DHT22;23627;53.302;-6.362;2024-02-23T13:33:39;8.80;99.90
37788;DHT22;23627;53.302;-6.362;2024-02-23T13:36:05;8.80;99.90
37788;DHT22;23627;53.302;-6.362;2024-02-23T13:38:31;8.70;99.90
37788;DHT22;23627;53.302;-6.362;2024-02-23T13:40:56;8.60;99.90
37788;DHT22;23627;53.302;-6.362;2024-02-23T13:43:22;8.40;99.90
37788;DHT22;23627;53.302;-6.362;2024-02-23T13:45:52;8.30;99.90
37788;DHT22;23627;53.302;-6.362;2024-02-23T13:48:19;8.20;99.90
37788;DHT22;23627;53.302;-6.362;2024-02-23T13:50:48;8.20;99.90
37788;DHT22;23627;53.302;-6.362;2024-02-23T13:53:14;8.10;99.90
37788;DHT22;23627;53.302;-6.362;2024-02-23T13:55:41;8.10;99.90
37788;DHT22;23627;53.302;-6.362;2024-02-23T13:58:10;8.20;99.90
37788;DHT22;23627;53.302;-6.362;2024-02-23T14:00:36;8.20;99.90
37788;DHT22;23627;53.302;-6.362;2024-02-23T14:03:02;8.30;99.90
37788;DHT22;23627;53.302;-6.362;2024-02-23T14:05:28;8.40;99.90
37788;DHT22;23627;53.302;-6.362;2024-02-23T14:07:54;8.60;99.90
37788;DHT22;23627;53.302;-6.362;2024-02-23T14:10:20;8.70;99.90
37788;DHT22;23627;53.302;-6.362;2024-02-23T14:12:46;8.60;99.90
37788;DHT22;23627;53.302;-6.362;2024-02-23T14:15:12;8.60;99.90
37788;DHT22;23627;53.302;-6.362;2024-02-23T14:17:41;8.50;99.90
37788;DHT22;23627;53.302;-6.362;2024-02-23T14:20:07;8.40;99.90
37788;DHT22;23627;53.302;-6.362;2024-02-23T14:22:38;8.40;99.90
37788;DHT22;23627;53.302;-6.362;2024-02-23T14:25:05;8.40;99.90
37788;DHT22;23627;53.302;-6.362;2024-02-23T14:27:31;8.40;99.90
37788;DHT22;23627;53.302;-6.362;2024-02-23T14:29:56;8.50;99.90
37788;DHT22;23627;53.302;-6.362;2024-02-23T14:32:22;8.60;99.90
37788;DHT22;23627;53.302;-6.362;2024-02-23T14:34:48;8.70;99.90
37788;DHT22;23627;53.302;-6.362;2024-02-23T14:37:15;8.80;99.90
37788;DHT22;23627;53.302;-6.362;2024-02-23T14:39:40;8.80;99.90
37788;DHT22;23627;53.302;-6.362;2024-02-23T14:42:06;8.90;99.90
37788;DHT22;23627;53.302;-6.362;2024-02-23T14:44:35;9.00;99.90
37788;DHT22;23627;53.302;-6.362;2024-02-23T14:47:02;9.00;99.90
37788;DHT22;23627;53.302;-6.362;2024-02-23T14:49:28;9.10;99.90
37788;DHT22;23627;53.302;-6.362;2024-02-23T14:51:54;9.20;99.90
37788;DHT22;23627;53.302;-6.362;2024-02-23T14:54:19;9.20;99.90
37788;DHT22;23627;53.302;-6.362;2024-02-23T14:56:45;9.20;99.90
37788;DHT22;23627;53.302;-6.362;2024-02-23T14:59:12;9.10;99.90
37788;DHT22;23627;53.302;-6.362;2024-02-23T15:01:38;9.00;99.90
37788;DHT22;23627;53.302;-6.362;2024-02-23T15:04:07;9.00;99.90
37788;DHT22;23627;53.302;-6.362;2024-02-23T15:06:33;9.00;99.90
37788;DHT22;23627;53.302;-6.362;2024-02-23T15:08:59;9.00;99.90
37788;DHT22;23627;53.302;-6.362;2024-02-23T15:11:25;9.00;99.90
37788;DHT22;23627;53.302;-6.362;2024-02-23T15:13:51;9.10;99.90
37788;DHT22;23627;53.302;-6.362;2024-02-23T15:16:17;9.10;99.90
37788;DHT22;23627;53.302;-6.362;2024-02-23T15:18:43;9.10;99.90
37788;DHT22;23627;53.302;-6.362;2024-02-23T15:21:09;8.90;99.90
37788;DHT22;23627;53.302;-6.362;2024-02-23T15:23:34;8.80;99.90
37788;DHT22;23627;53.302;-6.362;2024-02-23T15:26:00;8.70;99.90